createdAt,value
2023-05-01T00:02:15.251Z,11.99
2023-05-01T00:04:43.834Z,11.94
2023-05-01T00:07:11.960Z,11.96
2023-05-01T00:09:39.679Z,11.86
2023-05-01T00:12:08.815Z,11.85
2023-05-01T00:14:36.743Z,11.82
2023-05-01T00:17:04.534Z,11.84
2023-05-01T00:19:32.794Z,11.71
2023-05-01T00:22:00.552Z,11.46
2023-05-01T00:24:28.591Z,11.61
2023-05-01T00:26:56.561Z,11.65
2023-05-01T00:29:25.904Z,11.55
2023-05-01T00:31:54.066Z,11.47
2023-05-01T00:34:22.222Z,11.47
2023-05-01T00:36:50.153Z,11.34
2023-05-01T00:39:17.985Z,11.27
2023-05-01T00:41:45.836Z,11.23
2023-05-01T00:44:13.684Z,11.14
2023-05-01T00:46:43.572Z,11.09
2023-05-01T00:49:11.629Z,10.92
2023-05-01T00:51:39.422Z,10.91
2023-05-01T00:54:07.274Z,10.72
2023-05-01T00:56:35.527Z,10.73
2023-05-01T00:59:04.358Z,10.57
2023-05-01T01:01:33.356Z,10.55
2023-05-01T01:04:02.567Z,10.50
2023-05-01T01:06:36.575Z,10.41
2023-05-01T01:09:15.011Z,10.36
2023-05-01T01:11:51.390Z,10.23
2023-05-01T01:14:24.435Z,10.20
2023-05-01T01:16:58.476Z,10.11
2023-05-01T01:19:57.922Z,10.08
2023-05-01T01:22:28.880Z,10.11
2023-05-01T01:25:15.566Z,10.08
2023-05-01T01:28:18.096Z,10.02
2023-05-01T01:31:06.461Z,10.10
2023-05-01T01:34:02.423Z,10.10
2023-05-01T01:36:42.726Z,10.05
2023-05-01T01:39:16.288Z,9.97
2023-05-01T01:41:51.275Z,10.06
2023-05-01T01:44:24.390Z,10.14
2023-05-01T01:46:55.509Z,10.14
2023-05-01T01:49:27.775Z,10.15
2023-05-01T01:51:58.023Z,10.11
2023-05-01T01:54:30.886Z,10.08
2023-05-01T01:57:02.512Z,10.12
2023-05-01T01:59:34.392Z,10.13
2023-05-01T02:02:05.185Z,10.20
2023-05-01T02:04:36.111Z,10.15
2023-05-01T02:07:04.901Z,10.14
2023-05-01T02:09:34.971Z,10.13
2023-05-01T02:12:05.253Z,10.18
2023-05-01T02:14:33.522Z,10.20
2023-05-01T02:17:03.157Z,10.18
2023-05-01T02:19:33.190Z,10.19
2023-05-01T02:22:03.493Z,10.19
2023-05-01T02:24:34.504Z,10.26
2023-05-01T02:27:07.657Z,10.23
2023-05-01T02:29:35.585Z,10.21
2023-05-01T02:32:03.700Z,10.24
2023-05-01T02:34:31.479Z,10.16
2023-05-01T02:36:59.464Z,10.12
2023-05-01T02:39:28.556Z,10.14
2023-05-01T02:41:59.786Z,10.14
2023-05-01T02:44:30.748Z,10.14
2023-05-01T02:47:01.869Z,10.08
2023-05-01T02:49:32.420Z,10.06
2023-05-01T02:52:01.467Z,10.00
2023-05-01T02:54:31.941Z,10.04
2023-05-01T02:57:00.965Z,10.11
2023-05-01T02:59:29.432Z,9.95
2023-05-01T03:01:58.868Z,10.02
2023-05-01T03:04:27.209Z,10.05
2023-05-01T03:06:55.074Z,9.99
2023-05-01T03:09:23.046Z,9.92
2023-05-01T03:11:52.228Z,9.94
2023-05-01T03:14:20.148Z,9.89
2023-05-01T03:16:48.663Z,9.91
2023-05-01T03:19:16.605Z,9.87
2023-05-01T03:21:44.715Z,9.80
2023-05-01T03:24:12.677Z,9.83
2023-05-01T03:26:40.958Z,9.81
2023-05-01T03:29:10.194Z,9.84
2023-05-01T03:31:38.304Z,9.87
2023-05-01T03:34:07.965Z,9.72
2023-05-01T03:36:35.946Z,9.74
2023-05-01T03:39:04.888Z,9.80
2023-05-01T03:41:52.577Z,9.71
2023-05-01T03:44:26.347Z,9.70
2023-05-01T03:46:54.155Z,9.65
2023-05-01T03:49:26.188Z,9.66
2023-05-01T03:51:54.500Z,9.66
2023-05-01T03:54:22.411Z,9.63
2023-05-01T03:57:03.080Z,9.60
2023-05-01T03:59:32.737Z,9.59
2023-05-01T04:02:00.560Z,9.66
2023-05-01T04:04:31.175Z,9.59
2023-05-01T04:07:00.048Z,9.57
2023-05-01T04:09:29.718Z,9.59
2023-05-01T04:11:58.500Z,9.62
2023-05-01T04:14:26.269Z,9.56
2023-05-01T04:16:56.545Z,9.54
2023-05-01T04:19:24.360Z,9.54
2023-05-01T04:21:57.005Z,9.49
2023-05-01T04:24:25.159Z,9.53
2023-05-01T04:26:52.888Z,9.44
2023-05-01T04:29:20.804Z,9.38
2023-05-01T04:31:49.130Z,9.38
2023-05-01T04:34:18.422Z,9.44
2023-05-01T04:36:46.303Z,9.41
2023-05-01T04:39:14.078Z,9.38
2023-05-01T04:41:42.062Z,9.40
2023-05-01T04:44:10.265Z,9.44
2023-05-01T04:46:38.131Z,9.47
2023-05-01T04:49:05.914Z,9.49
2023-05-01T04:51:35.086Z,9.56
2023-05-01T04:54:04.686Z,9.60
2023-05-01T04:56:37.562Z,9.66
2023-05-01T04:59:05.709Z,9.70
2023-05-01T05:01:34.214Z,9.68
2023-05-01T05:04:02.924Z,9.70
2023-05-01T05:06:31.515Z,9.78
2023-05-01T05:09:01.429Z,9.84
2023-05-01T05:11:29.272Z,9.87
2023-05-01T05:13:59.672Z,9.89
2023-05-01T05:16:27.576Z,9.96
2023-05-01T05:18:57.323Z,10.09
2023-05-01T05:21:26.977Z,10.09
2023-05-01T05:23:57.116Z,10.16
2023-05-01T05:26:27.038Z,10.22
2023-05-01T05:28:57.366Z,10.34
2023-05-01T05:31:25.166Z,10.39
2023-05-01T05:33:53.054Z,10.50
2023-05-01T05:36:21.157Z,10.65
2023-05-01T05:38:49.719Z,10.79
2023-05-01T05:41:20.238Z,10.82
2023-05-01T05:43:51.620Z,10.90
2023-05-01T05:46:19.486Z,11.07
2023-05-01T05:48:47.807Z,11.12
2023-05-01T05:51:15.850Z,11.17
2023-05-01T05:53:44.005Z,11.26
2023-05-01T05:56:11.899Z,11.30
2023-05-01T05:58:39.808Z,11.38
2023-05-01T06:01:11.680Z,11.52
2023-05-01T06:03:40.807Z,11.57
2023-05-01T06:06:10.100Z,11.66
2023-05-01T06:08:38.561Z,11.67
2023-05-01T06:11:10.033Z,11.86
2023-05-01T06:13:39.278Z,12.02
2023-05-01T06:16:08.557Z,12.05
2023-05-01T06:18:37.976Z,12.13
2023-05-01T06:21:06.600Z,12.16
2023-05-01T06:23:35.070Z,12.26
2023-05-01T06:26:24.338Z,12.39
2023-05-01T06:28:52.343Z,12.42
2023-05-01T06:31:20.483Z,12.45
2023-05-01T06:33:55.073Z,12.50
2023-05-01T06:36:47.585Z,12.53
2023-05-01T06:39:15.744Z,12.62
2023-05-01T06:41:43.598Z,12.71
2023-05-01T06:44:11.257Z,12.75
2023-05-01T06:46:39.484Z,12.87
2023-05-01T06:49:09.148Z,12.82
2023-05-01T06:51:37.196Z,12.84
2023-05-01T06:54:05.112Z,12.86
2023-05-01T06:56:34.051Z,12.86
2023-05-01T06:59:01.830Z,12.95
2023-05-01T07:01:33.277Z,13.04
2023-05-01T07:04:04.153Z,13.19
2023-05-01T07:06:33.794Z,13.49
2023-05-01T07:09:01.637Z,13.65
2023-05-01T07:11:29.522Z,13.84
2023-05-01T07:13:57.806Z,13.78
2023-05-01T07:16:25.879Z,13.81
2023-05-01T07:18:53.807Z,13.97
2023-05-01T07:21:22.169Z,14.05
2023-05-01T07:23:51.846Z,14.13
2023-05-01T07:26:19.877Z,14.04
2023-05-01T07:28:48.067Z,14.04
2023-05-01T07:31:16.066Z,13.99
2023-05-01T07:33:43.865Z,14.08
2023-05-01T07:36:11.819Z,14.13
2023-05-01T07:38:39.615Z,14.20
2023-05-01T07:41:08.851Z,14.19
2023-05-01T07:43:37.146Z,14.28
2023-05-01T07:46:05.486Z,14.22
2023-05-01T07:48:34.414Z,14.40
2023-05-01T07:51:04.096Z,14.34
2023-05-01T07:53:32.245Z,14.29
2023-05-01T07:56:06.975Z,14.54
2023-05-01T07:58:36.130Z,14.58
2023-05-01T08:01:04.533Z,14.67
2023-05-01T08:03:32.936Z,14.78
2023-05-01T08:06:00.907Z,14.78
2023-05-01T08:08:28.781Z,14.80
2023-05-01T08:10:56.520Z,14.87
2023-05-01T08:13:24.452Z,14.89
2023-05-01T08:15:53.854Z,15.13
2023-05-01T08:18:21.799Z,15.11
2023-05-01T08:20:49.879Z,15.23
2023-05-01T08:23:18.613Z,15.33
2023-05-01T08:25:46.966Z,15.31
2023-05-01T08:28:15.854Z,15.28
2023-05-01T08:30:43.893Z,15.29
2023-05-01T08:33:13.399Z,15.33
2023-05-01T08:35:41.421Z,15.36
2023-05-01T08:38:09.245Z,15.39
2023-05-01T08:40:39.930Z,15.50
2023-05-01T08:43:07.744Z,15.60
2023-05-01T08:45:38.265Z,15.71
2023-05-01T08:48:10.443Z,15.88
2023-05-01T08:50:42.122Z,16.06
2023-05-01T08:53:13.002Z,16.10
2023-05-01T08:55:41.651Z,16.25
2023-05-01T08:58:11.043Z,16.22
2023-05-01T09:00:39.481Z,16.31
2023-05-01T09:03:10.827Z,16.46
2023-05-01T09:05:40.451Z,16.46
2023-05-01T09:08:08.354Z,16.55
2023-05-01T09:10:43.543Z,16.60
2023-05-01T09:13:11.293Z,16.65
2023-05-01T09:15:39.691Z,16.66
2023-05-01T09:18:09.955Z,16.57
2023-05-01T09:20:38.488Z,16.80
2023-05-01T09:23:07.667Z,16.71
2023-05-01T09:25:35.864Z,16.69
2023-05-01T09:28:05.872Z,16.60
2023-05-01T09:30:35.350Z,16.94
2023-05-01T09:33:11.238Z,16.81
2023-05-01T09:35:50.549Z,16.92
2023-05-01T09:38:25.503Z,16.91
2023-05-01T09:40:56.663Z,16.90
2023-05-01T09:43:28.645Z,17.13
2023-05-01T09:46:09.726Z,17.02
2023-05-01T09:48:38.497Z,16.92
2023-05-01T09:51:22.888Z,16.99
2023-05-01T09:53:52.580Z,17.16
2023-05-01T09:56:21.330Z,17.14
2023-05-01T09:58:49.628Z,17.46
2023-05-01T10:01:17.687Z,17.38
2023-05-01T10:03:46.477Z,17.27
2023-05-01T10:06:28.664Z,17.24
2023-05-01T10:08:58.418Z,17.24
2023-05-01T10:11:27.171Z,17.34
2023-05-01T10:14:08.779Z,17.37
2023-05-01T10:16:38.418Z,17.51
2023-05-01T10:19:06.713Z,17.55
2023-05-01T10:21:35.138Z,17.80
2023-05-01T10:24:05.903Z,17.93
2023-05-01T10:26:34.470Z,17.89
2023-05-01T10:29:02.914Z,18.06
2023-05-01T10:31:33.073Z,18.01
2023-05-01T10:34:01.858Z,18.25
2023-05-01T10:36:35.638Z,18.21
2023-05-01T10:39:04.949Z,18.34
2023-05-01T10:42:04.878Z,18.41
2023-05-01T10:44:34.742Z,18.52
2023-05-01T10:47:37.718Z,18.59
2023-05-01T10:50:08.041Z,18.45
2023-05-01T10:53:09.699Z,18.52
2023-05-01T10:55:40.229Z,18.54
2023-05-01T10:58:07.957Z,18.52
2023-05-01T11:00:35.732Z,18.52
2023-05-01T11:03:40.352Z,18.67
2023-05-01T11:06:09.186Z,18.52
2023-05-01T11:08:38.699Z,18.92
2023-05-01T11:11:53.063Z,18.76
2023-05-01T11:14:20.834Z,18.87
2023-05-01T11:16:49.513Z,19.07
2023-05-01T11:19:49.037Z,18.89
2023-05-01T11:22:17.018Z,18.92
2023-05-01T11:24:44.853Z,19.52
2023-05-01T11:27:18.214Z,19.08
2023-05-01T11:29:49.563Z,19.00
2023-05-01T11:32:24.925Z,19.34
2023-05-01T11:34:53.515Z,19.22
2023-05-01T11:37:21.950Z,19.29
2023-05-01T11:39:51.021Z,19.37
2023-05-01T11:42:23.082Z,19.09
2023-05-01T11:45:07.179Z,19.15
2023-05-01T11:47:35.088Z,19.57
2023-05-01T11:50:03.537Z,19.56
2023-05-01T11:52:31.291Z,19.32
2023-05-01T11:54:59.246Z,19.70
2023-05-01T11:57:28.756Z,19.68
2023-05-01T11:59:56.558Z,20.07
2023-05-01T12:02:25.542Z,19.82
2023-05-01T12:04:53.900Z,20.15
2023-05-01T12:07:23.154Z,20.10
2023-05-01T12:09:51.783Z,19.93
2023-05-01T12:12:19.412Z,19.80
2023-05-01T12:14:48.408Z,19.74
2023-05-01T12:17:16.144Z,19.72
2023-05-01T12:19:48.669Z,19.96
2023-05-01T12:22:16.851Z,20.18
2023-05-01T12:24:52.650Z,19.53
2023-05-01T12:27:20.889Z,19.37
2023-05-01T12:29:50.424Z,19.16
2023-05-01T12:32:18.850Z,19.33
2023-05-01T12:34:46.805Z,19.28
2023-05-01T12:37:14.541Z,19.21
2023-05-01T12:39:44.773Z,19.15
2023-05-01T12:42:14.620Z,19.24
2023-05-01T12:44:43.982Z,19.32
2023-05-01T12:47:13.985Z,19.44
2023-05-01T12:49:42.303Z,19.58
2023-05-01T12:52:10.131Z,19.61
2023-05-01T12:54:39.911Z,19.69
2023-05-01T12:57:08.998Z,19.64
2023-05-01T12:59:38.557Z,19.73
2023-05-01T13:02:08.883Z,19.92
2023-05-01T13:04:38.474Z,20.15
2023-05-01T13:07:12.145Z,20.05
2023-05-01T13:09:40.407Z,19.99
2023-05-01T13:12:09.854Z,20.12
2023-05-01T13:14:40.399Z,19.99
2023-05-01T13:17:09.861Z,19.81
2023-05-01T13:19:40.770Z,19.62
2023-05-01T13:22:08.809Z,19.68
2023-05-01T13:24:38.086Z,20.32
2023-05-01T13:27:06.426Z,19.85
2023-05-01T13:29:34.453Z,19.48
2023-05-01T13:32:04.635Z,19.49
2023-05-01T13:34:33.927Z,19.29
2023-05-01T13:37:03.295Z,19.24
2023-05-01T13:39:31.059Z,19.48
2023-05-01T13:41:58.904Z,19.43
2023-05-01T13:44:28.214Z,19.23
2023-05-01T13:46:56.274Z,19.29
2023-05-01T13:49:25.663Z,19.23
2023-05-01T13:51:55.402Z,19.23
2023-05-01T13:54:24.674Z,18.84
2023-05-01T13:56:52.676Z,18.68
2023-05-01T13:59:20.566Z,18.57
2023-05-01T14:01:48.796Z,18.45
2023-05-01T14:04:20.118Z,18.45
2023-05-01T14:06:49.139Z,18.41
2023-05-01T14:09:19.088Z,18.41
2023-05-01T14:11:49.605Z,18.11
2023-05-01T14:14:18.314Z,18.30
2023-05-01T14:16:48.714Z,17.98
2023-05-01T14:19:18.332Z,17.81
2023-05-01T14:21:47.157Z,17.79
2023-05-01T14:24:17.819Z,17.53
2023-05-01T14:26:49.481Z,17.40
2023-05-01T14:29:23.843Z,17.48
2023-05-01T14:31:52.760Z,17.21
2023-05-01T14:34:21.832Z,16.52
2023-05-01T14:36:49.577Z,16.13
2023-05-01T14:39:17.825Z,15.95
2023-05-01T14:41:45.659Z,15.62
2023-05-01T14:44:18.945Z,15.29
2023-05-01T14:46:51.686Z,14.92
2023-05-01T14:49:21.493Z,14.94
2023-05-01T14:51:50.191Z,15.03
2023-05-01T14:54:18.744Z,14.83
2023-05-01T14:56:48.331Z,14.90
2023-05-01T14:59:17.501Z,14.78
2023-05-01T15:01:45.320Z,14.96
2023-05-01T15:04:14.053Z,14.92
2023-05-01T15:06:41.891Z,14.85
2023-05-01T15:09:09.910Z,15.09
2023-05-01T15:11:37.634Z,14.91
2023-05-01T15:14:05.916Z,14.71
2023-05-01T15:16:35.013Z,14.29
2023-05-01T15:19:02.757Z,14.28
2023-05-01T15:21:31.621Z,14.17
2023-05-01T15:23:59.337Z,14.04
2023-05-01T15:26:26.998Z,14.14
2023-05-01T15:28:54.806Z,14.20
2023-05-01T15:31:22.741Z,14.35
2023-05-01T15:33:51.945Z,14.07
2023-05-01T15:36:19.671Z,14.16
2023-05-01T15:38:48.130Z,14.11
2023-05-01T15:41:18.750Z,13.99
2023-05-01T15:43:46.829Z,14.05
2023-05-01T15:46:15.737Z,14.17
2023-05-01T15:48:43.690Z,14.06
2023-05-01T15:51:12.820Z,13.98
2023-05-01T15:53:40.665Z,13.87
2023-05-01T15:56:09.686Z,13.71
2023-05-01T15:58:37.668Z,13.77
2023-05-01T16:01:05.746Z,13.85
2023-05-01T16:03:33.507Z,13.91
2023-05-01T16:06:02.840Z,13.89
2023-05-01T16:08:32.302Z,14.01
2023-05-01T16:11:00.039Z,14.02
2023-05-01T16:13:27.848Z,13.94
2023-05-01T16:15:55.536Z,13.89
2023-05-01T16:18:25.940Z,13.88
2023-05-01T16:20:54.922Z,13.96
2023-05-01T16:23:22.776Z,13.94
2023-05-01T16:25:51.992Z,13.88
2023-05-01T16:28:19.644Z,13.96
2023-05-01T16:30:47.734Z,13.98
2023-05-01T16:33:19.039Z,14.16
2023-05-01T16:35:49.563Z,14.04
2023-05-01T16:38:17.597Z,14.09
2023-05-01T16:40:45.857Z,14.11
2023-05-01T16:43:15.094Z,13.89
2023-05-01T16:45:42.910Z,14.09
2023-05-01T16:48:11.052Z,14.11
2023-05-01T16:50:41.626Z,14.14
2023-05-01T16:53:09.928Z,14.24
2023-05-01T16:55:37.634Z,14.24
2023-05-01T16:58:06.848Z,14.24
2023-05-01T17:00:36.144Z,14.34
2023-05-01T17:03:03.929Z,14.45
2023-05-01T17:05:31.924Z,14.36
2023-05-01T17:07:59.605Z,14.27
2023-05-01T17:10:27.366Z,14.22
2023-05-01T17:12:55.563Z,14.27
2023-05-01T17:15:23.266Z,14.21
2023-05-01T17:17:52.565Z,14.31
2023-05-01T17:20:20.336Z,14.31
2023-05-01T17:22:48.081Z,14.21
2023-05-01T17:25:15.982Z,14.25
2023-05-01T17:27:43.946Z,14.28
2023-05-01T17:30:12.125Z,14.22
2023-05-01T17:32:40.016Z,14.23
2023-05-01T17:35:09.725Z,14.22
2023-05-01T17:37:39.895Z,14.15
2023-05-01T17:40:10.952Z,14.17
2023-05-01T17:42:38.804Z,14.19
2023-05-01T17:45:09.894Z,14.16
2023-05-01T17:47:41.490Z,14.11
2023-05-01T17:50:13.027Z,14.14
2023-05-01T17:52:41.015Z,14.22
2023-05-01T17:55:09.453Z,14.22
2023-05-01T17:57:37.469Z,14.12
2023-05-01T18:00:06.319Z,14.16
2023-05-01T18:02:44.281Z,14.14
2023-05-01T18:05:13.821Z,14.15
2023-05-01T18:07:42.010Z,14.19
2023-05-01T18:10:11.018Z,14.18
2023-05-01T18:12:38.804Z,14.15
2023-05-01T18:15:09.882Z,14.08
2023-05-01T18:17:37.580Z,14.16
2023-05-01T18:20:05.929Z,14.11
2023-05-01T18:22:35.399Z,14.00
2023-05-01T18:25:03.134Z,14.04
2023-05-01T18:27:30.869Z,14.06
2023-05-01T18:29:59.049Z,13.87
2023-05-01T18:32:39.269Z,13.82
2023-05-01T18:35:14.667Z,13.88
2023-05-01T18:37:44.148Z,13.93
2023-05-01T18:40:13.111Z,13.87
2023-05-01T18:42:42.081Z,13.74
2023-05-01T18:45:11.024Z,13.75
2023-05-01T18:47:38.798Z,13.59
2023-05-01T18:50:07.769Z,13.48
2023-05-01T18:52:37.126Z,13.30
2023-05-01T18:55:07.621Z,13.33
2023-05-01T18:57:35.977Z,13.28
2023-05-01T19:00:03.866Z,13.25
2023-05-01T19:02:31.681Z,13.14
2023-05-01T19:04:59.614Z,13.17
2023-05-01T19:07:27.506Z,13.12
2023-05-01T19:09:55.174Z,12.95
2023-05-01T19:12:24.327Z,12.96
2023-05-01T19:14:52.217Z,12.88
2023-05-01T19:17:20.197Z,12.85
2023-05-01T19:19:48.018Z,12.81
2023-05-01T19:22:16.501Z,12.84
2023-05-01T19:24:44.240Z,12.81
2023-05-01T19:27:11.958Z,12.70
2023-05-01T19:29:42.195Z,12.82
2023-05-01T19:32:09.974Z,12.78
2023-05-01T19:34:37.697Z,12.83
2023-05-01T19:37:05.415Z,12.84
2023-05-01T19:39:33.164Z,12.90
2023-05-01T19:42:02.028Z,12.90
2023-05-01T19:44:29.899Z,12.90
2023-05-01T19:46:59.071Z,12.88
2023-05-01T19:49:27.749Z,12.90
2023-05-01T19:51:57.664Z,12.90
2023-05-01T19:54:26.556Z,12.87
2023-05-01T19:56:54.507Z,12.76
2023-05-01T19:59:22.372Z,12.76
2023-05-01T20:01:50.382Z,12.77
2023-05-01T20:04:19.792Z,12.79
2023-05-01T20:06:47.718Z,12.70
2023-05-01T20:09:15.604Z,12.66
2023-05-01T20:11:43.350Z,12.66
2023-05-01T20:14:11.131Z,12.60
2023-05-01T20:16:38.897Z,12.55
2023-05-01T20:19:06.843Z,12.39
2023-05-01T20:21:36.469Z,12.40
2023-05-01T20:24:04.262Z,12.30
2023-05-01T20:26:31.999Z,12.31
2023-05-01T20:29:00.371Z,12.30
2023-05-01T20:31:28.335Z,12.25
2023-05-01T20:33:56.100Z,12.25
2023-05-01T20:36:25.464Z,12.22
2023-05-01T20:38:57.653Z,12.22
2023-05-01T20:41:25.358Z,12.22
2023-05-01T20:43:53.040Z,12.14
2023-05-01T20:46:21.475Z,12.10
2023-05-01T20:48:49.643Z,12.09
2023-05-01T20:51:17.985Z,12.07
2023-05-01T20:53:45.823Z,11.93
2023-05-01T20:56:14.786Z,11.96
2023-05-01T20:58:42.642Z,12.02
2023-05-01T21:01:10.489Z,11.95
2023-05-01T21:03:38.530Z,11.92
2023-05-01T21:06:06.810Z,11.91
2023-05-01T21:08:35.054Z,12.01
2023-05-01T21:11:03.255Z,11.91
2023-05-01T21:13:32.904Z,11.95
2023-05-01T21:16:02.725Z,11.93
2023-05-01T21:18:34.406Z,11.85
2023-05-01T21:21:03.207Z,11.80
2023-05-01T21:23:31.470Z,11.82
2023-05-01T21:25:59.617Z,11.80
2023-05-01T21:28:27.546Z,11.82
2023-05-01T21:30:56.779Z,11.79
2023-05-01T21:33:25.084Z,11.82
2023-05-01T21:35:52.870Z,11.83
2023-05-01T21:38:20.603Z,11.84
2023-05-01T21:40:48.422Z,11.86
2023-05-01T21:43:16.393Z,11.89
2023-05-01T21:45:45.406Z,11.88
2023-05-01T21:48:20.288Z,11.89
2023-05-01T21:50:51.308Z,11.79
2023-05-01T21:53:19.088Z,11.76
2023-05-01T21:55:47.742Z,11.74
2023-05-01T21:58:15.619Z,11.68
2023-05-01T22:00:43.483Z,11.75
2023-05-01T22:03:11.424Z,11.67
2023-05-01T22:05:42.032Z,11.52
2023-05-01T22:08:09.924Z,11.53
2023-05-01T22:10:37.951Z,11.57
2023-05-01T22:13:06.411Z,11.43
2023-05-01T22:15:34.320Z,11.36
2023-05-01T22:18:02.195Z,11.34
2023-05-01T22:20:30.284Z,11.30
2023-05-01T22:22:59.450Z,11.30
2023-05-01T22:25:28.554Z,11.29
2023-05-01T22:27:56.440Z,11.26
2023-05-01T22:30:24.160Z,11.14
2023-05-01T22:32:51.946Z,11.02
2023-05-01T22:35:19.755Z,11.10
2023-05-01T22:37:47.901Z,11.09
2023-05-01T22:40:17.423Z,11.09
2023-05-01T22:42:45.281Z,11.03
2023-05-01T22:45:12.980Z,11.00
2023-05-01T22:47:41.174Z,10.96
2023-05-01T22:50:10.217Z,10.99
2023-05-01T22:52:37.979Z,10.98
2023-05-01T22:55:06.863Z,10.99
2023-05-01T22:57:36.250Z,10.94
2023-05-01T23:00:05.765Z,10.94
2023-05-01T23:02:34.178Z,10.89
2023-05-01T23:05:01.944Z,10.92
2023-05-01T23:07:29.781Z,10.91
2023-05-01T23:09:57.872Z,10.89
2023-05-01T23:12:25.697Z,10.87
2023-05-01T23:14:56.037Z,10.80
2023-05-01T23:17:23.868Z,10.81
2023-05-01T23:19:51.825Z,10.88
2023-05-01T23:22:20.598Z,10.84
2023-05-01T23:24:49.729Z,10.78
2023-05-01T23:27:18.519Z,10.87
2023-05-01T23:29:57.869Z,10.88
2023-05-01T23:32:27.907Z,10.83
2023-05-01T23:34:56.961Z,10.79
2023-05-01T23:37:24.856Z,10.76
2023-05-01T23:39:53.682Z,10.66
2023-05-01T23:42:22.337Z,10.72
2023-05-01T23:44:50.470Z,10.58
2023-05-01T23:47:20.394Z,10.61
2023-05-01T23:49:48.682Z,10.58
2023-05-01T23:52:16.910Z,10.53
2023-05-01T23:54:44.748Z,10.57
2023-05-01T23:57:12.622Z,10.63
2023-05-01T23:59:40.394Z,10.51
